TVSA

Argyle Airport

Argyle, Saint Vincent and the Grenadines
TAF TVSA 170500Z 1706/1806 11013KT 9999 SCT018 SCT036 TEMPO 1709/1715 5000 SHRA RA BKN014 FEW015CB
Issued Valid From Valid To
Oct-17 @ 05:00 UTC
(an hour ago)
Oct-17 @ 06:00 UTC
(2 minutes ago)
Oct-18 @ 06:00 UTC
(in 24 hours)
Oct-17 @ 06:00 to Oct-18 @ 06:00
TAF TVSA 170500Z 1706/1806 11013KT 9999 SCT018 SCT036
Wind Visibility Clouds
110° at 13 knots 10,000+ meters
  • Scattered at 1,800' AGL
  • Scattered at 3,600' AGL
Temporary Oct-17 @ 09:00 to Oct-17 @ 15:00
TEMPO 1709/1715 5000 SHRA RA BKN014 FEW015CB
Visibility Clouds Conditions
5,005 meters
  • Broken at 1,400' AGL
  • Few at 1,500' AGL
  • Rain
  • Rain
TAF TVSA 170500Z 1706/1806 11013KT 9999 SCT018 SCT036 TEMPO 1709/1715 5000 SHRA RA BKN014 FEW015CB
Issued Oct-17 @ 05:00 UTC
(an hour ago)
Valid From Oct-17 @ 06:00 UTC
(2 minutes ago)
Valid To Oct-18 @ 06:00 UTC
(in 24 hours)
Oct-17 @ 06:00 - Oct-18 @ 06:00
Wind Visibility
110° at 13 knots 10,000+ meters
Clouds
  • Scattered at 1,800' AGL
  • Scattered at 3,600' AGL
Temporary Oct-17 @ 09:00 - Oct-17 @ 15:00
Clouds
  • Broken at 1,400' AGL
  • Few at 1,500' AGL
Conditions
  • Rain
  • Rain